Forside
METAR-TAF:

METAR-TAF

Lufthavne :

Kristianstad, Sverige

Breddekreds: 55-55N, længdekreds: 014-05E, højde: 23 m

Aktuelle vejr

Denne rapport blev lavet for 21 minutter siden, kl. 21:50 UTC
Vind 9 kt fra nordøst
Temperatur 2°C
Fugtighed 80%
Tryk 1009 hPa
Sigt 10 km eller mere

METAR: ESMK 192150Z AUTO 04009KT 9999 OVC039/// 02/M01 Q1009

Tid: 00:11 (22:11 UTC)

Vejrudsigter

Denne rapport blev lavet for 10 timer og 56 minutter siden, kl. 11:15 UTC
Foreløbig gælder fra 19 på 12 UTC til 19 på 15 UTC
Vind 5 kt fra øst
Sigt 10 km eller mere
Brudte skyer i en højde af 1000 ft
let regn
ændring
fra 19 på 12 UTC til 19 på 14 UTC
Brudte skyer i en højde af 1500 ft

TAF: ESMK 191115Z 1912/1915 08005KT 9999 -RA BKN010 BECMG 1912/1914 BKN015

Vejrobservationer og prognoser fra mere end 4000 lufthavne (METAR og TAF).

De gule og røde prikker repræsenterer de meteorologiske stationer.

Flyt musen over at se navnet på stationen.

Så klik over at se vejr observationer og prognoser.

At skifte det kort: Klik på de grønne knapper med et sort kors for at zoome ind; på den grønne knap med en bindestreg for at zoome ud; eller på de grønne pile for tilstødende kort.


METAR-TAF: